Blue Oak Ranch Reserve, California Weather observations

Data are for 10 minute period ending at time listed.
 Day   Time   Solar   Ave.   Ave.  Ave.  Vector  Max.   Baro.   Total    
  of    of     Rad.   Air    Rel.  Wind   Wind   Wind  Press.  Precip.   
Year   Day            Temp.  Hum.  Speed  Dir.   Gust                    
2016   (PST)  Kw/m2    F      %     mph   deg.    mph    mb.     in.     
-------------------------------------------------------------------------
 177   14:30   0.83   88.6    21    8.4   280    14.4   947.7    0.00 
 177   14:40   0.81   88.3    21    9.3   280    14.4   947.6    0.00 
 177   14:50   0.80   88.8    20    8.9   281    13.7   947.6    0.00 
 177   15:00   0.77   88.7    20   10.1   284    16.3   947.5    0.00 
 177   15:10   0.75   88.4    19    8.0   282    12.9   947.4    0.00 
 177   15:20   0.73   89.0    18    7.0   269    12.2   947.3    0.00 
 177   15:30   0.70   88.9    18    8.2   283    14.0   947.3    0.00 
 177   15:40   0.67   89.2    18    8.8   284    13.4   947.3    0.00 
 177   15:50   0.64   89.0    18    7.4   281    13.2   947.3    0.00 
 177   16:00   0.61   89.3    17    8.8   281    14.5   947.3    0.00 
 177   16:10   0.58   88.3    17    8.7   285    14.0   947.3    0.00 
 177   16:20   0.56   88.3    16    8.0   285    13.6   947.3    0.00 
 177   16:30   0.52   88.3    16    7.7   284    11.8   947.3    0.00 
 177   16:40   0.49   87.9    17    8.5   287    11.6   947.2    0.00 
 177   16:50   0.46   87.9    17    6.5   275    12.1   947.2    0.00 
 177   17:00   0.43   87.8    19    6.6   278    10.4   947.1    0.00 
 177   17:10   0.40   87.7    18    5.9   275    10.6   947.2    0.00 
 177   17:20   0.37   87.2    18    6.0   274     9.7   947.2    0.00 
 177   17:30   0.34   86.4    18    8.1   280    12.2   947.2    0.00 
 177   17:40   0.30   86.0    19    7.3   282    11.2   947.2    0.00 
 177   17:50   0.28   85.0    20    8.1   284    12.4   947.2    0.00 
 177   18:00   0.25   84.5    21    7.5   282    11.3   947.3    0.00 
 177   18:10   0.21   83.2    21    8.1   286    11.8   947.4    0.00 
 177   18:20   0.18   81.8    20    7.8   293    11.5   947.6    0.00 
 177   18:30   0.15   80.3    20    7.6   305    13.4   947.7    0.00 
 177   18:40   0.13   79.6    20    7.2   308    11.3   947.9    0.00 
 177   18:50   0.10   79.6    19    3.8   314     7.7   947.9    0.00 
 177   19:00   0.07   79.1    20    3.4   334     6.4   947.9    0.00 
 177   19:10   0.05   76.9    21    1.4   334     4.8   948.0    0.00 
 177   19:20   0.03   73.9    23    1.9   351     4.3   948.0    0.00 
 177   19:30   0.01   70.7    26    0.9   336     3.1   948.1    0.00 
 177   19:40   0.01   68.6    28    1.3   344     3.8   947.9    0.00 
 177   19:50   0.00   67.5    29    2.2   306     4.1   947.8    0.00 
 177   20:00   0.00   66.4    30    1.4   303     3.3   947.7    0.00 
 177   20:10   0.00   65.2    30    0.5   293     3.0   947.6    0.00 
 177   20:20   0.00   64.0    31    0.4   357     1.9   947.5    0.00 
 177   20:30   0.00   63.2    32    1.1   286     2.5   947.4    0.00 
 177   20:40   0.00   62.7    31    0.9   307     3.0   947.4    0.00 
 177   20:50   0.00   62.1    32    0.9   276     3.6   947.4    0.00 
 177   21:00   0.00   61.0    33    2.4   298     3.9   947.5    0.00 
 177   21:10   0.00   61.2    29    1.0    62     2.6   947.5    0.00 
 177   21:20   0.00   61.2    29    0.8   301     2.4   947.6    0.00 
 177   21:30   0.00   60.5    30    1.8   286     4.0   947.7    0.00 
 177   21:40   0.00   60.6    27    1.1    41     3.1   947.8    0.00 
 177   21:50   0.00   60.5    26    1.5   342     2.9   947.7    0.00 
 177   22:00   0.00   60.1    28    1.2   310     2.6   947.8    0.00 
 177   22:10   0.00   59.6    26    0.9   276     4.0   947.8    0.00 
 177   22:20   0.00   60.0    25    2.1   310     4.7   947.9    0.00 
 177   22:30   0.00   59.1    26    0.3    69     1.3   947.9    0.00 
 177   22:40   0.00   58.8    26    0.0   248     0.5   947.9    0.00 
 177   22:50   0.00   57.9    27    0.7    60     2.3   947.9    0.00 
 177   23:00   0.00   57.4    29    1.1   293     2.4   947.9    0.00 
 177   23:10   0.00   56.5    30    1.1   313     2.3   948.0    0.00 
 177   23:20   0.00   56.9    29    0.6    11     2.0   948.0    0.00 
 177   23:30   0.00   57.3    30    0.8   313     2.3   948.0    0.00 
 177   23:40   0.00   56.7    29    0.8    62     1.9   947.9    0.00 
 177   23:50   0.00   57.1    29    0.0   264     0.1   947.9    0.00 
 178    0:00   0.00   56.9    30    0.5   297     2.3   947.8    0.00 
 178    0:10   0.00   56.6    30    0.6   292     1.8   947.9    0.00 
 178    0:20   0.00   57.0    30    0.5    90     1.8   947.8    0.00 
 178    0:30   0.00   58.5    32    0.9    20     2.2   947.9    0.00 
 178    0:40   0.00   58.5    32    0.8    24     1.6   947.7    0.00 
 178    0:50   0.00   58.7    34    1.0   302     2.4   947.7    0.00 
 178    1:00   0.00   58.5    37    1.1   278     3.4   947.5    0.00 
 178    1:10   0.00   58.1    37    1.2   291     2.9   947.4    0.00 
 178    1:20   0.00   58.3    39    0.3    68     1.6   947.3    0.00 
 178    1:30   0.00   59.0    42    0.5    39     2.4   947.3    0.00 
 178    1:40   0.00   58.3    42    0.6   337     2.6   947.2    0.00 
 178    1:50   0.00   57.9    43    1.1   297     2.6   947.2    0.00 
 178    2:00   0.00   58.8    43    0.0   321     1.0   947.2    0.00 
 178    2:10   0.00   59.2    43    0.4   141     1.5   947.2    0.00 
 178    2:20   0.00   59.3    43    0.0   292     0.4   947.2    0.00 
 178    2:30   0.00   58.2    44    0.2   296     1.8   947.3    0.00 
 178    2:40   0.00   58.3    42    0.6   300     1.5   947.3    0.00 
 178    2:50   0.00   58.7    41    0.7   322     2.4   947.3    0.00 
 178    3:00   0.00   58.1    43    0.5   340     2.5   947.4    0.00 
 178    3:10   0.00   58.4    41    0.1    43     1.0   947.4    0.00 
 178    3:20   0.00   58.1    41    0.0    36     0.5   947.4    0.00 
 178    3:30   0.00   58.1    40    0.4   282     2.2   947.5    0.00 
 178    3:40   0.00   57.0    42    0.8   298     2.2   947.6    0.00 
 178    3:50   0.00   56.7    41    0.8   301     2.2   947.6    0.00 
 178    4:00   0.00   57.0    39    0.1   118     1.2   947.6    0.00 
 178    4:10   0.00   57.2    38    0.1   296     1.1   947.6    0.00 
 178    4:20   0.00   57.3    38    0.1   296     0.9   947.6    0.00 
 178    4:30   0.00   57.5    39    0.5    43     2.6   947.7    0.00 
 178    4:40   0.00   56.8    39    1.3   301     2.6   947.8    0.00 
 178    4:50   0.01   56.6    41    0.9   308     2.5   947.8    0.00 
 178    5:00   0.01   57.0    40    0.6   308     1.7   947.9    0.00 
 178    5:10   0.01   57.0    40    0.6    59     2.2   947.9    0.00 
 178    5:20   0.03   57.4    40    0.2   284     0.8   947.9    0.00 
 178    5:30   0.03   57.7    40    0.2    67     1.5   947.9    0.00 
 178    5:40   0.03   58.2    40    0.2    54     1.5   947.9    0.00 
 178    5:50   0.04   59.0    39    0.1   284     0.9   947.9    0.00 
 178    6:00   0.04   60.5    40    0.0     0     0.0   947.9    0.00 
 178    6:10   0.11   62.5    40    0.7    77     2.1   947.9    0.00 
 178    6:20   0.19   63.4    40    0.0     0     0.0   947.9    0.00 
 178    6:30   0.22   66.9    37    0.0    39     0.9   947.9    0.00 
 178    6:40   0.27   71.7    36    1.1    58     2.3   947.9    0.00 
 178    6:50   0.28   74.9    33    0.4    79     2.0   948.1    0.00 
 178    7:00   0.32   77.0    28    0.9    78     2.1   948.3    0.00 
 178    7:10   0.36   80.0    24    0.1    89     0.7   948.5    0.00 
 178    7:20   0.39   81.1    27    0.6    90     1.5   948.7    0.00 
 178    7:30   0.42   82.0    25    1.0   114     1.6   948.9    0.00 
 178    7:40   0.45   83.9    23    0.3   164     1.0   949.0    0.00 
 178    7:50   0.48   85.2    21    2.5   275     4.6   948.9    0.00 
 178    8:00   0.51   84.4    21    2.8   272     4.7   948.9    0.00 
 178    8:10   0.54   84.1    22    3.8   233     5.7   948.9    0.00 
 178    8:20   0.57   83.2    24    3.6   231     5.3   948.9    0.00 
 178    8:30   0.59   82.4    25    4.3   223     6.5   948.9    0.00 
 178    8:40   0.62   82.6    25    4.4   229     6.3   948.9    0.00 
 178    8:50   0.65   82.9    25    4.5   221     6.4   948.9    0.00 
 178    9:00   0.67   83.2    26    4.2   230     6.0   948.9    0.00 
 178    9:10   0.70   84.1    27    4.0   231     6.1   948.8    0.00 
 178    9:20   0.72   84.4    28    4.2   224     6.8   948.8    0.00 
 178    9:30   0.74   83.3    30    5.1   224     8.6   948.8    0.00 
 178    9:40   0.76   83.9    32    5.3   230     8.7   948.8    0.00 
 178    9:50   0.78   82.9    34    4.9   241     7.8   948.9    0.00 
 178   10:00   0.80   82.9    34    4.1   224     8.1   948.9    0.00 
 178   10:10   0.82   84.0    35    4.1   240     7.2   948.9    0.00 
 178   10:20   0.84   85.3    34    4.8   261     8.7   948.8    0.00 
 178   10:30   0.85   86.1    33    5.0   252     8.5   948.8    0.00 
 178   10:40   0.86   85.0    34    5.6   241     9.0   948.8    0.00 
 178   10:50   0.88   84.7    34    5.8   248     9.9   948.8    0.00 
 178   11:00   0.89   85.5    33    4.7   245     7.8   948.8    0.00 
 178   11:10   0.89   85.3    34    6.5   239     9.9   948.9    0.00 
 178   11:20   0.91   85.5    34    5.3   247    10.3   949.0    0.00 
 178   11:30   0.92   85.5    34    5.7   236    10.5   949.0    0.00 
 178   11:40   0.92   84.8    35    6.1   251    10.2   949.0    0.00 
 178   11:50   0.92   84.8    34    7.3   230    11.1   949.1    0.00 
 178   12:00   0.92   84.7    33    7.6   229    12.2   949.1    0.00 
 178   12:10   0.92   85.3    32    6.8   234    11.8   949.1    0.00 
 178   12:20   0.92   85.8    30    6.4   239    11.9   949.1    0.00 
 178   12:30   0.92   86.0    29    7.0   233    11.8   949.1    0.00 
 178   12:40   0.92   86.7    27    6.3   231    12.4   949.1    0.00 
 178   12:50   0.91   87.0    26    7.9   228    12.7   949.1    0.00 
 178   13:00   0.88   86.9    26    8.3   235    13.0   949.1    0.00 
 178   13:10   0.90   87.8    25    6.9   252    12.3   949.0    0.00 
 178   13:20   0.89   89.5    23    6.0   238     9.9   948.8    0.00 
 178   13:30   0.88   89.2    23    7.1   255    13.3   948.8    0.00 
 178   13:40   0.87   89.5    24    7.6   240    14.1   948.8    0.00 
 178   13:50   0.86   89.2    25    8.2   236    13.0   948.8    0.00 
 178   14:00   0.85   90.1    25    6.7   243    12.2   948.7    0.00 
 178   14:10   0.83   90.5    24    7.7   250    13.0   948.7    0.00 
 178   14:20   0.82   90.4    24    7.6   238    14.9   948.6    0.00 

Return to Blue Oak Ranch Reserve graphs page.


Western Regional Climate Center,wrcc@dri.edu